createdAt,value
2019-05-07T00:04:38.164Z,10.57
2019-05-07T00:09:44.134Z,10.17
2019-05-07T00:15:00.548Z,9.00
2019-05-07T00:19:58.136Z,11.70
2019-05-07T00:25:04.274Z,13.77
2019-05-07T00:30:09.613Z,10.77
2019-05-07T00:35:17.485Z,10.33
2019-05-07T00:40:45.334Z,12.27
2019-05-07T00:45:56.854Z,11.70
2019-05-07T00:51:19.560Z,11.30
2019-05-07T00:56:25.849Z,10.17
2019-05-07T01:01:32.349Z,9.80
2019-05-07T01:06:39.514Z,12.13
2019-05-07T01:11:44.877Z,8.93
2019-05-07T01:16:52.703Z,9.47
2019-05-07T01:21:59.128Z,10.03
2019-05-07T01:27:05.418Z,9.47
2019-05-07T01:32:18.634Z,11.33
2019-05-07T01:37:23.810Z,10.33
2019-05-07T01:42:29.549Z,9.43
2019-05-07T01:47:35.005Z,9.30
2019-05-07T01:52:42.684Z,10.30
2019-05-07T01:57:48.618Z,9.60
2019-05-07T02:02:59.918Z,10.07
2019-05-07T02:08:08.315Z,8.93
2019-05-07T02:13:14.587Z,11.17
2019-05-07T02:18:21.833Z,11.53
2019-05-07T02:23:28.145Z,10.13
2019-05-07T02:28:34.711Z,12.63
2019-05-07T02:33:43.435Z,11.00
2019-05-07T02:38:53.326Z,9.77
2019-05-07T02:44:00.956Z,10.87
2019-05-07T02:49:32.703Z,11.00
2019-05-07T02:55:15.500Z,11.20
2019-05-07T03:00:24.098Z,13.10
2019-05-07T03:05:29.047Z,11.57
2019-05-07T03:10:35.008Z,13.97
2019-05-07T03:15:43.237Z,13.67
2019-05-07T03:20:53.657Z,10.67
2019-05-07T03:26:13.817Z,13.73
2019-05-07T03:31:26.548Z,14.53
2019-05-07T03:36:51.125Z,14.33
2019-05-07T03:41:58.830Z,14.00
2019-05-07T03:47:23.869Z,15.43
2019-05-07T03:52:29.526Z,13.07
2019-05-07T03:57:34.769Z,14.00
2019-05-07T04:02:43.398Z,14.60
2019-05-07T04:07:47.713Z,13.03
2019-05-07T04:12:53.565Z,13.00
2019-05-07T04:17:58.960Z,14.13
2019-05-07T04:23:04.550Z,14.63
2019-05-07T04:28:16.682Z,15.27
2019-05-07T04:33:24.761Z,14.73
2019-05-07T04:38:33.350Z,15.20
2019-05-07T04:43:37.613Z,15.37
2019-05-07T04:48:44.471Z,15.43
2019-05-07T04:53:53.476Z,14.20
2019-05-07T04:58:57.568Z,13.83
2019-05-07T05:04:20.711Z,15.17
2019-05-07T05:09:12.542Z,14.77
2019-05-07T05:14:18.122Z,15.23
2019-05-07T05:19:24.010Z,14.53
2019-05-07T05:24:36.703Z,15.20
2019-05-07T05:29:43.074Z,16.00
2019-05-07T05:34:48.757Z,17.20
2019-05-07T05:40:05.547Z,15.90
2019-05-07T05:45:02.312Z,12.30
2019-05-07T05:50:09.991Z,10.27
2019-05-07T05:55:18.692Z,11.67
2019-05-07T06:00:42.311Z,12.60
2019-05-07T06:06:10.028Z,15.60
2019-05-07T06:11:36.516Z,12.40
2019-05-07T06:16:47.625Z,15.17
2019-05-07T06:22:12.798Z,13.77
2019-05-07T06:27:18.226Z,14.83
2019-05-07T06:32:23.914Z,17.47
2019-05-07T06:37:32.025Z,12.17
2019-05-07T06:42:58.615Z,11.93
2019-05-07T06:48:04.900Z,14.73
2019-05-07T06:53:11.912Z,17.83
2019-05-07T06:58:17.586Z,20.43
2019-05-07T07:03:38.963Z,23.30
2019-05-07T07:08:54.342Z,17.80
2019-05-07T07:14:02.504Z,18.83
2019-05-07T07:19:07.721Z,20.00
2019-05-07T07:24:13.956Z,21.07
2019-05-07T07:29:22.024Z,20.23
2019-05-07T07:34:29.228Z,19.80
2019-05-07T07:39:36.289Z,15.30
2019-05-07T07:44:42.571Z,13.60
2019-05-07T07:49:48.325Z,12.80
2019-05-07T07:54:55.132Z,13.50
2019-05-07T08:00:13.323Z,12.70
2019-05-07T08:05:19.006Z,11.03
2019-05-07T08:10:24.659Z,10.07
2019-05-07T08:15:32.722Z,10.37
2019-05-07T08:20:37.273Z,10.73
2019-05-07T08:25:49.081Z,8.57
2019-05-07T08:31:22.627Z,10.37
2019-05-07T08:36:28.916Z,8.67
2019-05-07T08:41:34.829Z,10.40
2019-05-07T08:47:07.589Z,9.77
2019-05-07T08:52:12.840Z,10.13
2019-05-07T08:57:18.426Z,8.13
2019-05-07T09:02:23.763Z,10.47
2019-05-07T09:07:29.166Z,9.77
2019-05-07T09:12:35.675Z,9.87
2019-05-07T09:17:42.397Z,9.40
2019-05-07T09:22:48.741Z,11.30
2019-05-07T09:27:56.503Z,10.77
2019-05-07T09:33:14.206Z,9.87
2019-05-07T09:38:19.685Z,11.93
2019-05-07T09:43:25.042Z,10.33
2019-05-07T09:48:30.905Z,11.23
2019-05-07T09:53:37.910Z,12.10
2019-05-07T09:58:43.425Z,9.07
2019-05-07T10:03:51.741Z,9.23
2019-05-07T10:08:57.357Z,10.67
2019-05-07T10:14:06.542Z,10.10
2019-05-07T10:19:12.666Z,10.97
2019-05-07T10:24:18.152Z,9.80
2019-05-07T10:29:23.678Z,12.10
2019-05-07T10:34:30.531Z,10.60
2019-05-07T10:39:36.629Z,10.23
2019-05-07T10:44:52.517Z,10.87
2019-05-07T10:50:36.252Z,10.00
2019-05-07T10:55:34.409Z,8.90
2019-05-07T11:00:42.125Z,9.63
2019-05-07T11:05:47.416Z,10.13
2019-05-07T11:10:54.257Z,11.37
2019-05-07T11:16:08.234Z,9.60
2019-05-07T11:21:14.228Z,9.73
2019-05-07T11:26:19.730Z,12.30
2019-05-07T11:31:26.200Z,10.83
2019-05-07T11:36:32.030Z,11.57
2019-05-07T11:41:51.794Z,11.40
2019-05-07T11:47:28.297Z,13.37
2019-05-07T11:52:37.720Z,12.90
2019-05-07T11:57:44.465Z,11.10
2019-05-07T12:02:51.894Z,9.40
2019-05-07T12:07:57.495Z,10.53
2019-05-07T12:13:03.369Z,9.17
2019-05-07T12:18:08.686Z,10.10
2019-05-07T12:23:14.376Z,10.00
2019-05-07T12:28:22.548Z,10.83
2019-05-07T12:33:46.490Z,6.57
2019-05-07T12:38:53.324Z,7.23
2019-05-07T12:44:02.341Z,9.90
2019-05-07T12:49:08.196Z,8.17
2019-05-07T12:54:29.491Z,9.77
2019-05-07T12:59:36.333Z,7.67
2019-05-07T13:04:42.957Z,8.00
2019-05-07T13:09:48.931Z,7.00
2019-05-07T13:14:54.783Z,8.60
2019-05-07T13:20:01.812Z,8.67
2019-05-07T13:25:07.943Z,9.93
2019-05-07T13:30:15.471Z,10.13
2019-05-07T13:35:22.822Z,9.13
2019-05-07T13:40:34.458Z,9.60
2019-05-07T13:46:12.070Z,9.83
2019-05-07T13:51:17.838Z,11.87
2019-05-07T13:56:23.509Z,8.57
2019-05-07T14:01:38.461Z,10.97
2019-05-07T14:06:45.117Z,11.80
2019-05-07T14:11:52.745Z,9.27
2019-05-07T14:16:59.366Z,10.43
2019-05-07T14:22:15.522Z,8.80
2019-05-07T14:27:12.774Z,9.80
2019-05-07T14:32:49.841Z,9.70
2019-05-07T14:38:14.596Z,8.40
2019-05-07T14:43:26.993Z,9.33
2019-05-07T14:48:36.195Z,8.83
2019-05-07T14:53:42.221Z,11.40
2019-05-07T14:58:48.618Z,8.20
2019-05-07T15:03:54.497Z,9.67
2019-05-07T15:09:00.825Z,10.10
2019-05-07T15:14:07.914Z,10.00
2019-05-07T15:19:13.832Z,10.27
2019-05-07T15:24:21.960Z,9.33
2019-05-07T15:29:27.366Z,9.40
2019-05-07T15:34:32.809Z,9.83
2019-05-07T15:39:39.525Z,9.60
2019-05-07T15:44:45.409Z,9.80
2019-05-07T15:49:50.914Z,9.90
2019-05-07T15:54:56.866Z,10.53
2019-05-07T16:00:08.816Z,8.40
2019-05-07T16:05:14.745Z,8.20
2019-05-07T16:10:20.261Z,8.87
2019-05-07T16:15:27.025Z,8.73
2019-05-07T16:20:32.688Z,9.93
2019-05-07T16:25:37.954Z,9.33
2019-05-07T16:30:43.761Z,10.20
2019-05-07T16:35:50.130Z,8.40
2019-05-07T16:40:55.713Z,8.93
2019-05-07T16:46:02.426Z,8.70
2019-05-07T16:51:08.015Z,9.40
2019-05-07T16:56:13.988Z,12.10
2019-05-07T17:01:19.851Z,9.23
2019-05-07T17:06:25.635Z,11.60
2019-05-07T17:11:32.082Z,10.90
2019-05-07T17:16:38.734Z,10.37
2019-05-07T17:21:44.605Z,9.70
2019-05-07T17:26:51.759Z,8.37
2019-05-07T17:31:57.609Z,8.07
2019-05-07T17:37:04.081Z,8.80
2019-05-07T17:42:11.815Z,8.53
2019-05-07T17:47:17.719Z,9.57
2019-05-07T17:52:22.903Z,8.00
2019-05-07T17:57:28.967Z,7.93
2019-05-07T18:02:44.449Z,9.47
2019-05-07T18:07:52.742Z,6.67
2019-05-07T18:12:58.866Z,6.57
2019-05-07T18:18:06.914Z,6.07
2019-05-07T18:23:16.925Z,7.73
2019-05-07T18:28:21.635Z,6.43
2019-05-07T18:33:42.584Z,4.90
2019-05-07T18:38:49.046Z,6.00
2019-05-07T18:44:08.920Z,5.70
2019-05-07T18:49:05.754Z,7.17
2019-05-07T18:54:13.256Z,6.13
2019-05-07T18:59:22.204Z,6.90
2019-05-07T19:04:30.276Z,5.77
2019-05-07T19:09:38.360Z,5.80
2019-05-07T19:14:44.649Z,5.40
2019-05-07T19:19:52.412Z,7.73
2019-05-07T19:24:57.994Z,4.90
2019-05-07T19:30:04.240Z,6.53
2019-05-07T19:35:12.252Z,5.53
2019-05-07T19:40:19.334Z,7.00
2019-05-07T19:45:24.904Z,11.80
2019-05-07T19:50:32.323Z,7.80
2019-05-07T19:55:55.838Z,8.03
2019-05-07T20:01:02.912Z,7.30
2019-05-07T20:06:08.862Z,7.30
2019-05-07T20:11:32.625Z,8.47
2019-05-07T20:16:38.081Z,8.40
2019-05-07T20:21:44.945Z,8.33
2019-05-07T20:26:52.649Z,8.17
2019-05-07T20:31:59.159Z,7.83
2019-05-07T20:37:05.650Z,9.07
2019-05-07T20:42:12.422Z,9.27
2019-05-07T20:47:17.645Z,9.23
2019-05-07T20:52:23.734Z,8.20
2019-05-07T20:57:32.025Z,9.70
2019-05-07T21:02:45.413Z,9.23
2019-05-07T21:07:47.077Z,11.23
2019-05-07T21:12:52.995Z,10.77
2019-05-07T21:17:58.802Z,10.67
2019-05-07T21:23:04.589Z,9.13
2019-05-07T21:28:12.125Z,8.77
2019-05-07T21:33:17.380Z,7.97
2019-05-07T21:38:23.833Z,8.40
2019-05-07T21:43:29.557Z,9.20
2019-05-07T21:48:35.599Z,9.60
2019-05-07T21:53:47.366Z,8.90
2019-05-07T21:58:56.733Z,9.33
2019-05-07T22:04:03.104Z,10.50
2019-05-07T22:09:12.810Z,10.03
2019-05-07T22:14:19.377Z,11.10
2019-05-07T22:19:26.171Z,9.97
2019-05-07T22:24:32.942Z,9.13
2019-05-07T22:29:39.181Z,9.37
2019-05-07T22:35:02.975Z,10.77
2019-05-07T22:40:07.897Z,9.83
2019-05-07T22:45:14.878Z,10.13
2019-05-07T22:50:22.473Z,8.33
2019-05-07T22:55:27.099Z,11.77
2019-05-07T23:00:36.809Z,9.50
2019-05-07T23:05:44.952Z,10.53
2019-05-07T23:10:52.460Z,10.53
2019-05-07T23:15:58.036Z,9.43
2019-05-07T23:21:04.775Z,7.77
2019-05-07T23:26:12.268Z,8.30
2019-05-07T23:31:17.577Z,8.73
2019-05-07T23:36:23.640Z,8.90
2019-05-07T23:41:52.610Z,8.17
2019-05-07T23:46:59.644Z,7.83
2019-05-07T23:52:05.518Z,9.13
2019-05-07T23:57:15.016Z,9.13
